Terminal Aerodrome Forecast
Issued by NWS

Home | Current Version | Previous Version | Text Only | Print | Product List | Glossary On
Versions: 1 2 3 4 5 6 7 8 9 10 11 12 13 14 15 16 17 18
000
FTUS45 KRIW 150539
TAFPNA
TAF
KPNA 150539Z 1506/1606 30006KT 6SM BR SCT001
      TEMPO 1506/1510 2SM BR
     FM151000 VRB04KT 3/4SM BR SCT002
     FM151600 VRB04KT 4SM BR SCT005
     FM151800 VRB05KT P6SM BKN200
     FM160200 06005KT P6SM SCT070 BKN150
      AMD LTD TO CLD VIS AND WIND=

USA.gov is the U.S. government's official web portal to all federal, state and local government web resources and services.